createdAt,value
2023-05-23T00:02:30.938Z,5.60
2023-05-23T00:07:35.099Z,5.20
2023-05-23T00:12:39.880Z,5.50
2023-05-23T00:17:45.771Z,6.30
2023-05-23T00:22:49.693Z,5.50
2023-05-23T00:27:53.410Z,5.60
2023-05-23T00:32:57.208Z,5.50
2023-05-23T00:38:02.585Z,5.50
2023-05-23T00:43:07.854Z,5.10
2023-05-23T00:48:12.482Z,5.60
2023-05-23T00:53:20.823Z,6.00
2023-05-23T00:58:25.496Z,6.10
2023-05-23T01:03:31.482Z,5.60
2023-05-23T01:08:36.884Z,5.40
2023-05-23T01:13:45.480Z,5.60
2023-05-23T01:18:58.765Z,5.10
2023-05-23T01:24:24.091Z,6.30
2023-05-23T01:29:32.251Z,6.10
2023-05-23T01:34:38.321Z,5.90
2023-05-23T01:39:44.170Z,5.90
2023-05-23T01:44:48.114Z,5.90
2023-05-23T01:49:52.670Z,6.30
2023-05-23T01:54:57.345Z,6.40
2023-05-23T02:00:01.303Z,6.30
2023-05-23T02:05:05.772Z,6.40
2023-05-23T02:10:10.776Z,6.30
2023-05-23T02:15:15.160Z,6.00
2023-05-23T02:20:19.490Z,7.10
2023-05-23T02:25:25.302Z,5.60
2023-05-23T02:30:30.006Z,5.80
2023-05-23T02:35:34.812Z,6.70
2023-05-23T02:40:40.681Z,6.10
2023-05-23T02:45:44.909Z,5.40
2023-05-23T02:50:49.685Z,7.00
2023-05-23T02:55:54.885Z,6.30
2023-05-23T03:00:58.992Z,6.90
2023-05-23T03:06:07.235Z,7.00
2023-05-23T03:11:12.166Z,6.20
2023-05-23T03:16:16.123Z,7.00
2023-05-23T03:21:20.063Z,7.00
2023-05-23T03:26:27.245Z,6.80
2023-05-23T03:31:32.854Z,6.20
2023-05-23T03:36:40.005Z,7.10
2023-05-23T03:41:44.556Z,6.50
2023-05-23T03:46:49.459Z,6.80
2023-05-23T03:51:54.770Z,6.50
2023-05-23T03:56:59.370Z,6.50
2023-05-23T04:02:03.571Z,6.20
2023-05-23T04:07:08.740Z,6.60
2023-05-23T04:12:13.023Z,6.70
2023-05-23T04:17:17.008Z,6.20
2023-05-23T04:22:21.402Z,6.20
2023-05-23T04:27:26.460Z,6.00
2023-05-23T04:32:31.394Z,6.10
2023-05-23T04:37:35.582Z,6.10
2023-05-23T04:42:42.850Z,5.60
2023-05-23T04:48:00.296Z,6.00
2023-05-23T04:53:23.658Z,6.10
2023-05-23T04:58:28.010Z,6.10
2023-05-23T05:03:35.282Z,6.70
2023-05-23T05:08:58.832Z,5.40
2023-05-23T05:14:02.719Z,5.40
2023-05-23T05:19:06.710Z,5.50
2023-05-23T05:24:11.581Z,6.00
2023-05-23T05:29:29.203Z,5.10
2023-05-23T05:34:33.788Z,6.20
2023-05-23T05:39:37.700Z,6.30
2023-05-23T05:44:42.667Z,5.80
2023-05-23T05:49:46.633Z,5.80
2023-05-23T05:54:50.350Z,5.20
2023-05-23T05:59:54.527Z,5.90
2023-05-23T06:04:58.516Z,5.90
2023-05-23T06:10:02.822Z,5.80
2023-05-23T06:15:07.784Z,6.60
2023-05-23T06:20:12.849Z,5.90
2023-05-23T06:25:18.431Z,5.90
2023-05-23T06:30:23.676Z,6.00
2023-05-23T06:35:28.807Z,5.40
2023-05-23T06:40:32.492Z,5.80
2023-05-23T06:45:39.313Z,6.50
2023-05-23T06:50:43.287Z,5.70
2023-05-23T06:55:48.215Z,6.20
2023-05-23T07:00:54.552Z,6.50
2023-05-23T07:06:02.625Z,6.40
2023-05-23T07:11:07.252Z,5.70
2023-05-23T07:16:16.900Z,5.70
2023-05-23T07:21:33.439Z,5.30
2023-05-23T07:26:38.611Z,5.60
2023-05-23T07:31:42.853Z,5.70
2023-05-23T07:36:47.974Z,6.00
2023-05-23T07:41:52.323Z,6.30
2023-05-23T07:46:56.668Z,5.10
2023-05-23T07:52:01.324Z,5.40
2023-05-23T07:57:07.702Z,5.70
2023-05-23T08:02:12.636Z,4.60
2023-05-23T08:07:19.321Z,5.20
2023-05-23T08:12:27.701Z,5.00
2023-05-23T08:17:38.487Z,5.20
2023-05-23T08:22:42.567Z,4.70
2023-05-23T08:27:46.586Z,4.60
2023-05-23T08:33:09.027Z,4.60
2023-05-23T08:38:13.587Z,5.20
2023-05-23T08:43:27.273Z,4.60
2023-05-23T08:48:31.643Z,4.60
2023-05-23T08:53:37.879Z,5.50
2023-05-23T08:58:43.991Z,5.40
2023-05-23T09:03:50.638Z,5.00
2023-05-23T09:09:06.344Z,5.50
2023-05-23T09:14:10.037Z,5.70
2023-05-23T09:19:15.320Z,5.60
2023-05-23T09:24:34.969Z,5.20
2023-05-23T09:29:42.311Z,5.40
2023-05-23T09:34:59.555Z,5.60
2023-05-23T09:40:14.980Z,5.80
2023-05-23T09:45:33.798Z,6.10
2023-05-23T09:50:38.497Z,6.40
2023-05-23T09:55:42.806Z,6.30
2023-05-23T10:00:52.767Z,7.00
2023-05-23T10:06:02.803Z,7.30
2023-05-23T10:11:12.570Z,8.10
2023-05-23T10:16:29.713Z,8.40
2023-05-23T10:21:42.331Z,7.60
2023-05-23T10:26:47.722Z,8.30
2023-05-23T10:31:52.915Z,7.30
2023-05-23T10:37:05.775Z,6.10
2023-05-23T10:42:25.379Z,6.00
2023-05-23T10:47:29.269Z,6.30
2023-05-23T10:52:43.951Z,6.30
2023-05-23T10:57:48.474Z,6.50
2023-05-23T11:02:56.072Z,7.40
2023-05-23T11:08:10.366Z,6.90
2023-05-23T11:13:14.770Z,8.90
2023-05-23T11:18:29.267Z,9.80
2023-05-23T11:23:42.316Z,9.60
2023-05-23T11:28:59.540Z,8.80
2023-05-23T11:34:03.309Z,9.80
2023-05-23T11:39:07.164Z,8.80
2023-05-23T11:44:14.204Z,7.40
2023-05-23T11:49:19.589Z,9.20
2023-05-23T11:54:25.568Z,7.50
2023-05-23T11:59:30.005Z,7.80
2023-05-23T12:04:38.926Z,7.60
2023-05-23T12:09:44.441Z,8.00
2023-05-23T12:14:48.248Z,6.90
2023-05-23T12:19:53.383Z,6.70
2023-05-23T12:24:59.655Z,7.60
2023-05-23T12:30:12.839Z,8.00
2023-05-23T12:35:16.946Z,6.80
2023-05-23T12:40:21.492Z,6.70
2023-05-23T12:45:37.198Z,7.90
2023-05-23T12:50:41.849Z,8.70
2023-05-23T12:55:48.836Z,7.30
2023-05-23T13:00:52.712Z,8.00
2023-05-23T13:05:57.048Z,7.40
2023-05-23T13:11:01.150Z,7.60
2023-05-23T13:16:05.220Z,7.90
2023-05-23T13:21:14.216Z,9.10
2023-05-23T13:26:19.120Z,7.40
2023-05-23T13:31:23.814Z,6.80
2023-05-23T13:36:28.128Z,7.50
2023-05-23T13:41:31.853Z,8.10
2023-05-23T13:46:35.436Z,8.00
2023-05-23T13:51:39.191Z,7.00
2023-05-23T13:56:42.840Z,6.90
2023-05-23T14:01:46.876Z,7.00
2023-05-23T14:06:51.322Z,6.90
2023-05-23T14:11:56.682Z,7.20
2023-05-23T14:17:03.669Z,7.60
2023-05-23T14:22:07.441Z,7.20
2023-05-23T14:27:11.571Z,6.90
2023-05-23T14:32:15.406Z,8.00
2023-05-23T14:37:19.221Z,7.50
2023-05-23T14:42:22.909Z,7.10
2023-05-23T14:47:27.044Z,6.90
2023-05-23T14:52:30.934Z,7.30
2023-05-23T14:57:34.677Z,6.10
2023-05-23T15:02:38.764Z,5.70
2023-05-23T15:07:42.468Z,6.40
2023-05-23T15:12:46.288Z,7.80
2023-05-23T15:17:51.452Z,5.70
2023-05-23T15:22:55.162Z,6.20
2023-05-23T15:28:00.494Z,5.80
2023-05-23T15:33:04.490Z,5.70
2023-05-23T15:38:08.359Z,6.20
2023-05-23T15:43:12.380Z,6.70
2023-05-23T15:48:16.311Z,6.70
2023-05-23T15:53:21.048Z,6.50
2023-05-23T15:58:24.804Z,6.60
2023-05-23T16:03:28.583Z,5.00
2023-05-23T16:08:32.756Z,4.40
2023-05-23T16:13:36.665Z,5.20
2023-05-23T16:18:40.759Z,5.50
2023-05-23T16:23:44.494Z,5.50
2023-05-23T16:28:48.351Z,5.00
2023-05-23T16:33:52.806Z,5.40
2023-05-23T16:38:56.686Z,5.30
2023-05-23T16:44:00.672Z,5.60
2023-05-23T16:49:04.958Z,5.30
2023-05-23T16:54:10.697Z,5.50
2023-05-23T16:59:14.744Z,5.30
2023-05-23T17:04:20.492Z,5.30
2023-05-23T17:09:24.974Z,5.10
2023-05-23T17:14:29.025Z,5.80
2023-05-23T17:19:33.779Z,6.10
2023-05-23T17:24:37.702Z,6.60
2023-05-23T17:29:41.381Z,6.70
2023-05-23T17:34:45.064Z,7.60
2023-05-23T17:39:51.246Z,11.90
2023-05-23T17:44:54.969Z,13.20
2023-05-23T17:49:58.670Z,10.30
2023-05-23T17:55:02.413Z,7.80
2023-05-23T18:00:07.038Z,7.20
2023-05-23T18:05:16.736Z,7.40
2023-05-23T18:10:20.950Z,7.00
2023-05-23T18:15:26.176Z,7.70
2023-05-23T18:20:29.875Z,7.20
2023-05-23T18:25:33.884Z,9.00
2023-05-23T18:30:37.809Z,8.90
2023-05-23T18:35:41.806Z,8.80
2023-05-23T18:40:45.698Z,8.90
2023-05-23T18:45:49.620Z,9.00
2023-05-23T18:50:53.379Z,9.20
2023-05-23T18:55:57.110Z,8.80
2023-05-23T19:01:04.175Z,7.90
2023-05-23T19:06:08.409Z,7.80
2023-05-23T19:11:12.462Z,7.50
2023-05-23T19:16:17.856Z,7.30
2023-05-23T19:21:23.196Z,6.00
2023-05-23T19:26:27.458Z,8.10
2023-05-23T19:31:32.112Z,8.00
2023-05-23T19:36:36.989Z,7.00
2023-05-23T19:41:42.148Z,8.10
2023-05-23T19:46:47.376Z,7.90
2023-05-23T19:51:51.173Z,8.40
2023-05-23T19:56:54.885Z,8.80
2023-05-23T20:01:58.976Z,10.40
2023-05-23T20:07:02.902Z,9.00
2023-05-23T20:12:07.061Z,9.10
2023-05-23T20:17:11.073Z,10.10
2023-05-23T20:22:14.771Z,9.50
2023-05-23T20:27:18.509Z,9.20
2023-05-23T20:32:22.156Z,9.70
2023-05-23T20:37:28.679Z,10.10
2023-05-23T20:42:33.210Z,10.20
2023-05-23T20:47:38.134Z,11.50
2023-05-23T20:52:43.483Z,10.60
2023-05-23T20:57:47.214Z,10.20
2023-05-23T21:02:51.568Z,10.80
2023-05-23T21:07:55.604Z,11.00
2023-05-23T21:13:00.577Z,11.30
2023-05-23T21:18:04.730Z,10.70
2023-05-23T21:23:08.501Z,12.20
2023-05-23T21:28:12.241Z,12.80
2023-05-23T21:33:16.817Z,12.00
2023-05-23T21:38:20.703Z,12.30
2023-05-23T21:43:24.470Z,12.90
2023-05-23T21:48:28.314Z,13.00
2023-05-23T21:53:32.113Z,15.90
2023-05-23T21:58:36.023Z,14.80
2023-05-23T22:03:40.772Z,15.90
2023-05-23T22:08:46.792Z,16.50
2023-05-23T22:13:51.354Z,16.90
2023-05-23T22:18:58.449Z,17.20
2023-05-23T22:24:02.213Z,16.20
2023-05-23T22:29:07.365Z,17.10
2023-05-23T22:34:11.441Z,16.80
2023-05-23T22:39:15.325Z,16.00
2023-05-23T22:44:18.995Z,17.20
2023-05-23T22:49:22.726Z,16.20
2023-05-23T22:54:26.574Z,15.20
2023-05-23T22:59:31.320Z,15.00
2023-05-23T23:04:35.645Z,15.50
2023-05-23T23:09:39.912Z,14.20
2023-05-23T23:14:43.842Z,15.90
2023-05-23T23:19:50.646Z,16.00
2023-05-23T23:24:54.493Z,14.20
2023-05-23T23:30:02.206Z,14.80
2023-05-23T23:35:06.398Z,15.20
2023-05-23T23:40:11.103Z,14.00
2023-05-23T23:45:14.905Z,12.40
2023-05-23T23:50:19.438Z,11.30
2023-05-23T23:55:23.341Z,12.30
